Time;durP1;ratioP1;P1;durP2;ratioP2;P2;SDS_P1;SDS_P2;PMS_P1;PMS_P2;Temp;Humidity;BMP_temperature;BMP_pressure;BME280_temperature;BME280_humidity;BME280_pressure;Samples;Min_cycle;Max_cycle;Signal;HPM_P1;HPM_P2
2022/04/27 00:02:19;;;;;;;4.80;2.35;;;;;;;;;;4992319;28;20774;-65
2022/04/27 00:04:49;;;;;;;4.63;2.33;;;;;;;;;;4989644;28;20505;-63
2022/04/27 00:07:17;;;;;;;4.07;2.42;;;;;;;;;;4974384;28;20403;-63
2022/04/27 00:09:45;;;;;;;4.80;2.28;;;;;;;;;;4988788;28;20054;-63
2022/04/27 00:12:14;;;;;;;5.40;2.80;;;;;;;;;;4990810;28;20410;-63
2022/04/27 00:14:44;;;;;;;3.80;2.35;;;;;;;;;;4989811;28;20532;-64
2022/04/27 00:17:12;;;;;;;3.97;2.28;;;;;;;;;;4992896;28;20105;-66
2022/04/27 00:19:40;;;;;;;4.35;2.55;;;;;;;;;;4981786;28;20117;-63
2022/04/27 00:22:11;;;;;;;3.60;2.35;;;;;;;;;;4991160;28;20898;-63
2022/04/27 00:24:40;;;;;;;3.30;2.45;;;;;;;;;;4989845;28;20146;-65
2022/04/27 00:27:08;;;;;;;3.72;2.45;;;;;;;;;;4991418;28;20112;-63
2022/04/27 00:29:37;;;;;;;3.92;3.00;;;;;;;;;;4989093;28;20082;-63
2022/04/27 00:32:05;;;;;;;4.80;2.58;;;;;;;;;;4991475;28;20082;-63
2022/04/27 00:34:34;;;;;;;5.45;2.83;;;;;;;;;;4982266;28;20097;-66
2022/04/27 00:37:03;;;;;;;6.35;2.63;;;;;;;;;;4990424;28;20088;-65
2022/04/27 00:39:33;;;;;;;2.80;2.08;;;;;;;;;;4990066;28;20269;-64
2022/04/27 00:42:12;;;;;;;4.18;2.53;;;;;;;;;;4987434;28;20081;-65
2022/04/27 00:44:43;;;;;;;4.22;2.28;;;;;;;;;;4990958;28;20117;-65
2022/04/27 00:47:12;;;;;;;3.30;2.20;;;;;;;;;;4991481;28;20050;-67
2022/04/27 00:49:41;;;;;;;4.78;2.20;;;;;;;;;;4991270;28;20038;-65
2022/04/27 00:52:12;;;;;;;2.80;2.00;;;;;;;;;;4990674;28;20081;-66
2022/04/27 00:54:42;;;;;;;3.75;2.17;;;;;;;;;;4989883;28;20100;-64
2022/04/27 00:57:11;;;;;;;4.00;2.22;;;;;;;;;;4987581;28;20141;-62
2022/04/27 00:59:40;;;;;;;5.13;2.28;;;;;;;;;;4985665;28;20086;-63
2022/04/27 01:02:09;;;;;;;3.25;2.10;;;;;;;;;;4992340;28;20050;-64
2022/04/27 01:04:38;;;;;;;4.10;2.20;;;;;;;;;;4985379;28;20050;-64
2022/04/27 01:07:07;;;;;;;8.00;2.28;;;;;;;;;;4990252;28;20133;-63
2022/04/27 01:09:36;;;;;;;3.50;2.33;;;;;;;;;;4989055;28;20153;-63
2022/04/27 01:12:08;;;;;;;3.75;2.25;;;;;;;;;;4989331;28;20132;-63
2022/04/27 01:14:43;;;;;;;5.50;2.30;;;;;;;;;;4987966;28;20521;-63
2022/04/27 01:17:11;;;;;;;3.58;1.98;;;;;;;;;;4990290;28;20157;-63
2022/04/27 01:19:39;;;;;;;4.30;2.35;;;;;;;;;;4981725;28;20042;-63
2022/04/27 01:22:09;;;;;;;5.20;3.38;;;;;;;;;;4978886;28;20133;-63
2022/04/27 01:24:38;;;;;;;6.95;2.70;;;;;;;;;;4990330;28;20050;-64
2022/04/27 01:27:06;;;;;;;5.47;3.10;;;;;;;;;;4989722;28;20042;-66
2022/04/27 01:29:35;;;;;;;4.93;2.65;;;;;;;;;;4985561;28;20066;-63
2022/04/27 01:32:03;;;;;;;5.25;2.55;;;;;;;;;;4982161;28;20121;-63
2022/04/27 01:34:31;;;;;;;6.35;3.00;;;;;;;;;;4990591;28;20453;-63
2022/04/27 01:39:44;;;;;;;4.20;2.65;;;;;;;;;;4989729;28;20108;-65
2022/04/27 01:42:12;;;;;;;4.18;2.40;;;;;;;;;;4987212;28;20097;-64
2022/04/27 01:44:41;;;;;;;6.00;2.70;;;;;;;;;;4984959;28;20073;-67
2022/04/27 01:47:09;;;;;;;5.00;2.50;;;;;;;;;;4989230;28;20058;-64
2022/04/27 01:49:37;;;;;;;4.13;2.65;;;;;;;;;;4988432;28;20081;-63
2022/04/27 01:54:53;;;;;;;4.40;2.17;;;;;;;;;;4986058;28;20450;-63
2022/04/27 01:57:21;;;;;;;5.18;2.65;;;;;;;;;;4989636;28;20046;-64
2022/04/27 01:59:50;;;;;;;5.05;2.53;;;;;;;;;;4979852;28;20081;-64
2022/04/27 02:02:18;;;;;;;4.40;2.50;;;;;;;;;;4988767;28;20145;-64
2022/04/27 02:04:47;;;;;;;4.80;2.53;;;;;;;;;;4990110;28;20077;-64
2022/04/27 02:07:15;;;;;;;5.10;2.90;;;;;;;;;;4984327;28;20073;-65
2022/04/27 02:09:43;;;;;;;3.95;2.47;;;;;;;;;;4980606;28;20089;-64
2022/04/27 02:12:13;;;;;;;3.67;2.40;;;;;;;;;;4986519;28;20133;-64
2022/04/27 02:14:41;;;;;;;6.18;3.30;;;;;;;;;;4990548;28;20077;-64
2022/04/27 02:17:10;;;;;;;3.53;2.28;;;;;;;;;;4987075;28;20046;-64
2022/04/27 02:19:41;;;;;;;6.07;2.80;;;;;;;;;;4987272;28;20405;-65
2022/04/27 02:22:10;;;;;;;4.63;2.50;;;;;;;;;;4987041;28;20073;-64
2022/04/27 02:24:38;;;;;;;4.68;2.80;;;;;;;;;;4987888;28;20122;-65
2022/04/27 02:27:09;;;;;;;7.13;3.88;;;;;;;;;;4988621;28;20082;-65
2022/04/27 02:29:40;;;;;;;7.88;3.75;;;;;;;;;;4989097;28;20116;-64
2022/04/27 02:32:09;;;;;;;7.18;4.05;;;;;;;;;;4988154;28;20495;-63
2022/04/27 02:34:38;;;;;;;7.65;4.68;;;;;;;;;;4989810;28;20088;-63
2022/04/27 02:37:06;;;;;;;12.10;5.25;;;;;;;;;;4989610;28;20046;-64
2022/04/27 02:39:34;;;;;;;11.32;6.20;;;;;;;;;;4988581;28;20077;-65
2022/04/27 02:42:03;;;;;;;14.57;6.18;;;;;;;;;;4988514;28;20105;-64
2022/04/27 02:44:31;;;;;;;13.35;6.30;;;;;;;;;;4989035;28;20127;-64
2022/04/27 02:47:01;;;;;;;13.95;5.82;;;;;;;;;;4987438;28;20042;-63
2022/04/27 02:52:15;;;;;;;15.35;6.22;;;;;;;;;;4987559;28;20439;-64
2022/04/27 02:54:44;;;;;;;12.43;5.82;;;;;;;;;;4986056;28;20094;-64
2022/04/27 02:57:12;;;;;;;12.45;6.32;;;;;;;;;;4988560;28;20121;-64
2022/04/27 02:59:41;;;;;;;12.50;6.07;;;;;;;;;;4987206;28;20101;-64
2022/04/27 03:02:11;;;;;;;13.73;7.05;;;;;;;;;;4988605;28;20078;-64
2022/04/27 03:04:40;;;;;;;11.70;6.47;;;;;;;;;;4989627;28;20061;-63
2022/04/27 03:07:08;;;;;;;12.20;5.97;;;;;;;;;;4986518;28;20557;-66
2022/04/27 03:09:37;;;;;;;14.45;6.45;;;;;;;;;;4981994;28;20058;-64
2022/04/27 03:12:06;;;;;;;13.77;6.00;;;;;;;;;;4989083;28;20046;-64
2022/04/27 03:14:34;;;;;;;10.25;5.75;;;;;;;;;;4979480;28;20061;-63
2022/04/27 03:17:03;;;;;;;15.07;6.28;;;;;;;;;;4978804;28;20049;-64
2022/04/27 03:19:33;;;;;;;13.50;5.90;;;;;;;;;;4984362;28;20100;-63
2022/04/27 03:22:01;;;;;;;13.27;6.80;;;;;;;;;;4981387;28;20131;-64
2022/04/27 03:24:30;;;;;;;12.18;6.30;;;;;;;;;;4987673;28;20148;-64
2022/04/27 03:26:58;;;;;;;12.25;6.15;;;;;;;;;;4990267;28;20189;-64
2022/04/27 03:29:26;;;;;;;12.43;6.13;;;;;;;;;;4990395;28;20409;-64
2022/04/27 03:31:55;;;;;;;11.45;6.32;;;;;;;;;;4992064;28;20073;-64
2022/04/27 03:34:23;;;;;;;11.73;5.53;;;;;;;;;;4992013;28;20049;-64
2022/04/27 03:36:53;;;;;;;14.98;6.85;;;;;;;;;;4991897;28;20050;-64
2022/04/27 03:39:21;;;;;;;12.00;6.53;;;;;;;;;;4988904;28;20086;-64
2022/04/27 03:42:10;;;;;;;13.70;6.15;;;;;;;;;;4988325;28;20046;-64
2022/04/27 03:44:38;;;;;;;15.35;6.95;;;;;;;;;;4988506;28;20074;-66
2022/04/27 03:47:06;;;;;;;13.93;6.63;;;;;;;;;;4990683;28;20050;-64
2022/04/27 03:49:35;;;;;;;12.13;6.40;;;;;;;;;;4992288;28;20133;-65
2022/04/27 03:52:05;;;;;;;14.63;6.90;;;;;;;;;;4988440;28;20077;-64
2022/04/27 03:54:36;;;;;;;14.25;6.93;;;;;;;;;;4991312;28;20078;-63
2022/04/27 03:57:07;;;;;;;11.43;5.90;;;;;;;;;;4991230;28;20046;-64
2022/04/27 03:59:36;;;;;;;14.65;7.10;;;;;;;;;;4992066;28;20054;-65
2022/04/27 04:02:06;;;;;;;16.02;7.25;;;;;;;;;;4989960;28;20050;-64
2022/04/27 04:04:35;;;;;;;11.98;6.57;;;;;;;;;;4992370;28;20072;-64
2022/04/27 04:07:05;;;;;;;13.82;7.15;;;;;;;;;;4989150;28;20054;-65
2022/04/27 04:09:34;;;;;;;15.35;7.30;;;;;;;;;;4987775;28;20144;-65
2022/04/27 04:12:02;;;;;;;17.65;7.25;;;;;;;;;;4990253;28;20125;-64
2022/04/27 04:14:30;;;;;;;14.60;7.10;;;;;;;;;;4992744;28;20138;-64
2022/04/27 04:16:59;;;;;;;16.35;7.22;;;;;;;;;;4986334;28;20656;-63
2022/04/27 04:19:28;;;;;;;15.98;7.88;;;;;;;;;;4991273;28;20050;-64
2022/04/27 04:21:56;;;;;;;14.18;7.40;;;;;;;;;;4987267;28;20061;-64
2022/04/27 04:24:26;;;;;;;18.20;8.18;;;;;;;;;;4986813;28;20145;-66
2022/04/27 04:29:42;;;;;;;16.73;7.85;;;;;;;;;;4990381;28;20047;-63
2022/04/27 04:32:10;;;;;;;19.02;8.68;;;;;;;;;;4989458;28;20078;-64
2022/04/27 04:34:39;;;;;;;15.15;7.07;;;;;;;;;;4992126;28;20130;-64
2022/04/27 04:37:07;;;;;;;16.40;7.13;;;;;;;;;;4989088;28;20142;-65
2022/04/27 04:39:36;;;;;;;15.30;7.85;;;;;;;;;;4980325;28;20046;-65
2022/04/27 04:42:07;;;;;;;18.08;8.65;;;;;;;;;;4988281;28;20322;-65
2022/04/27 04:44:35;;;;;;;18.63;8.27;;;;;;;;;;4994372;28;20111;-63
2022/04/27 04:47:04;;;;;;;17.25;8.38;;;;;;;;;;4988102;28;20049;-63
2022/04/27 04:49:32;;;;;;;19.02;8.80;;;;;;;;;;4987416;28;20097;-63
2022/04/27 04:52:01;;;;;;;17.05;8.73;;;;;;;;;;4989388;28;20104;-63
2022/04/27 04:54:29;;;;;;;21.02;8.70;;;;;;;;;;4988590;28;20089;-63
2022/04/27 04:56:59;;;;;;;19.30;8.98;;;;;;;;;;4984308;28;20118;-64
2022/04/27 04:59:28;;;;;;;19.25;9.00;;;;;;;;;;4986379;28;20125;-65
2022/04/27 05:01:56;;;;;;;17.92;7.82;;;;;;;;;;4990691;28;20058;-64
2022/04/27 05:04:25;;;;;;;18.73;8.57;;;;;;;;;;4987632;28;20050;-64
2022/04/27 05:06:53;;;;;;;16.33;8.50;;;;;;;;;;4990121;28;20125;-64
2022/04/27 05:09:22;;;;;;;18.30;7.90;;;;;;;;;;4991952;28;20327;-66
2022/04/27 05:11:50;;;;;;;22.77;9.77;;;;;;;;;;4989842;28;20108;-64
2022/04/27 05:14:20;;;;;;;20.27;9.27;;;;;;;;;;4986797;28;20042;-65
2022/04/27 05:16:48;;;;;;;18.98;8.40;;;;;;;;;;4982473;28;20129;-64
2022/04/27 05:19:16;;;;;;;21.50;9.68;;;;;;;;;;4991356;28;20062;-64
2022/04/27 05:21:45;;;;;;;20.42;9.07;;;;;;;;;;4990834;28;20129;-64
2022/04/27 05:24:13;;;;;;;20.08;8.57;;;;;;;;;;4982674;28;20085;-64
2022/04/27 05:26:41;;;;;;;19.35;9.13;;;;;;;;;;4989571;28;20461;-63
2022/04/27 05:31:58;;;;;;;20.58;9.45;;;;;;;;;;4974895;28;20085;-64
2022/04/27 05:34:29;;;;;;;21.83;9.15;;;;;;;;;;4990104;28;20121;-64
2022/04/27 05:36:58;;;;;;;21.02;9.82;;;;;;;;;;4991223;28;20494;-63
2022/04/27 05:39:26;;;;;;;19.73;9.30;;;;;;;;;;4975458;28;20124;-64
2022/04/27 05:41:55;;;;;;;21.55;10.30;;;;;;;;;;4982252;28;20113;-64
2022/04/27 05:44:24;;;;;;;19.02;9.18;;;;;;;;;;4995363;28;20042;-65
2022/04/27 05:46:52;;;;;;;18.95;8.73;;;;;;;;;;5002560;28;20085;-64
2022/04/27 05:49:22;;;;;;;22.15;9.60;;;;;;;;;;4990710;28;20090;-64
2022/04/27 05:51:51;;;;;;;16.58;7.72;;;;;;;;;;4985669;28;20487;-64
2022/04/27 05:54:19;;;;;;;21.70;9.55;;;;;;;;;;4989428;28;20125;-63
2022/04/27 05:56:47;;;;;;;19.15;8.75;;;;;;;;;;4990415;28;20173;-64
2022/04/27 05:59:17;;;;;;;23.52;9.82;;;;;;;;;;4989625;28;20458;-64
2022/04/27 06:01:45;;;;;;;18.45;7.97;;;;;;;;;;4972442;28;20467;-64
2022/04/27 06:04:19;;;;;;;20.08;9.35;;;;;;;;;;4989391;28;20121;-65
2022/04/27 06:06:49;;;;;;;20.50;8.85;;;;;;;;;;4991681;28;20145;-64
2022/04/27 06:09:17;;;;;;;21.42;9.55;;;;;;;;;;4974446;28;20078;-64
2022/04/27 06:11:45;;;;;;;20.95;8.15;;;;;;;;;;4981311;28;20149;-65
2022/04/27 06:14:14;;;;;;;18.10;8.50;;;;;;;;;;4990935;28;20080;-64
2022/04/27 06:16:43;;;;;;;25.27;10.07;;;;;;;;;;4990826;28;20456;-64
2022/04/27 06:19:11;;;;;;;20.73;9.07;;;;;;;;;;4982703;28;20578;-63
2022/04/27 06:21:40;;;;;;;18.20;8.30;;;;;;;;;;4988162;28;20403;-63
2022/04/27 06:24:10;;;;;;;21.02;8.85;;;;;;;;;;4990999;28;20043;-65
2022/04/27 06:26:38;;;;;;;17.65;8.65;;;;;;;;;;4987595;28;20051;-64
2022/04/27 06:29:07;;;;;;;17.25;7.78;;;;;;;;;;4987224;28;20097;-64
2022/04/27 06:31:35;;;;;;;15.30;7.97;;;;;;;;;;4990064;28;20509;-64
2022/04/27 06:34:03;;;;;;;16.92;8.52;;;;;;;;;;4977605;28;20061;-64
2022/04/27 06:36:32;;;;;;;13.90;7.65;;;;;;;;;;4972976;28;20482;-63
2022/04/27 06:39:00;;;;;;;14.15;7.38;;;;;;;;;;4973507;28;20046;-63
2022/04/27 06:41:30;;;;;;;16.83;8.38;;;;;;;;;;4987704;28;20042;-64
2022/04/27 06:43:59;;;;;;;15.45;7.97;;;;;;;;;;4988759;28;20100;-64
2022/04/27 06:46:27;;;;;;;15.57;7.60;;;;;;;;;;4986943;28;20133;-64
2022/04/27 06:48:56;;;;;;;16.15;7.20;;;;;;;;;;4989234;28;20047;-64
2022/04/27 06:51:24;;;;;;;15.80;7.88;;;;;;;;;;4990778;28;20054;-64
2022/04/27 06:53:53;;;;;;;17.63;8.43;;;;;;;;;;4973984;28;20082;-66
2022/04/27 06:56:21;;;;;;;14.80;8.10;;;;;;;;;;4988885;28;20120;-66
2022/04/27 06:58:51;;;;;;;22.95;9.27;;;;;;;;;;4988119;28;20399;-64
2022/04/27 07:01:21;;;;;;;15.20;8.02;;;;;;;;;;4981571;28;20109;-64
2022/04/27 07:03:55;;;;;;;14.50;7.65;;;;;;;;;;4991512;28;20137;-64
2022/04/27 07:06:23;;;;;;;17.70;8.55;;;;;;;;;;4983998;28;20042;-63
2022/04/27 07:08:56;;;;;;;18.05;7.90;;;;;;;;;;4992672;28;20050;-64
2022/04/27 07:11:25;;;;;;;16.05;8.25;;;;;;;;;;4994791;28;20046;-65
2022/04/27 07:13:55;;;;;;;15.52;8.15;;;;;;;;;;4992470;28;20074;-64
2022/04/27 07:16:24;;;;;;;18.27;8.95;;;;;;;;;;4994528;28;20050;-64
2022/04/27 07:18:53;;;;;;;15.68;7.90;;;;;;;;;;4993444;28;20137;-64
2022/04/27 07:21:22;;;;;;;15.77;7.57;;;;;;;;;;4991578;28;20039;-64
2022/04/27 07:23:51;;;;;;;17.73;8.38;;;;;;;;;;4984332;28;20057;-65
2022/04/27 07:26:20;;;;;;;15.15;7.63;;;;;;;;;;4995967;28;20051;-64
2022/04/27 07:28:49;;;;;;;16.17;8.07;;;;;;;;;;4993617;28;20105;-64
2022/04/27 07:31:19;;;;;;;15.23;8.27;;;;;;;;;;4992291;28;20042;-64
2022/04/27 07:33:48;;;;;;;16.13;7.97;;;;;;;;;;4992573;28;20042;-64
2022/04/27 07:36:18;;;;;;;13.95;7.60;;;;;;;;;;4994841;28;20574;-64
2022/04/27 07:38:46;;;;;;;12.25;7.03;;;;;;;;;;4994308;28;20503;-64
2022/04/27 07:41:15;;;;;;;14.18;7.63;;;;;;;;;;4987115;28;20051;-64
2022/04/27 07:43:44;;;;;;;15.55;7.95;;;;;;;;;;4994428;28;20058;-65
2022/04/27 07:46:13;;;;;;;12.52;7.05;;;;;;;;;;4993959;28;20137;-64
2022/04/27 07:48:43;;;;;;;15.18;7.28;;;;;;;;;;4991455;28;20071;-65
2022/04/27 07:51:14;;;;;;;13.70;6.60;;;;;;;;;;4991994;28;20046;-64
2022/04/27 07:53:43;;;;;;;16.00;7.70;;;;;;;;;;4988487;28;20046;-65
2022/04/27 07:56:12;;;;;;;16.13;7.40;;;;;;;;;;4993311;28;20108;-65
2022/04/27 07:58:41;;;;;;;13.85;6.70;;;;;;;;;;4990619;28;20498;-63
2022/04/27 08:01:10;;;;;;;12.20;6.75;;;;;;;;;;4993029;28;20064;-64
2022/04/27 08:03:39;;;;;;;11.98;6.28;;;;;;;;;;4993298;28;20053;-64
2022/04/27 08:06:09;;;;;;;13.30;6.97;;;;;;;;;;4992004;28;20050;-64
2022/04/27 08:08:38;;;;;;;13.13;6.80;;;;;;;;;;4991386;28;20109;-64
2022/04/27 08:11:09;;;;;;;14.13;6.35;;;;;;;;;;4967770;28;20057;-64
2022/04/27 08:13:41;;;;;;;16.02;6.45;;;;;;;;;;4958761;28;20126;-64
2022/04/27 08:16:11;;;;;;;11.48;6.15;;;;;;;;;;4964024;28;20509;-64
2022/04/27 08:18:41;;;;;;;13.25;6.15;;;;;;;;;;4973030;28;20399;-64
2022/04/27 08:21:21;;;;;;;13.07;5.93;;;;;;;;;;4965368;28;20055;-65
2022/04/27 08:23:50;;;;;;;11.35;5.88;;;;;;;;;;4963096;28;20046;-65
2022/04/27 08:26:19;;;;;;;11.98;5.68;;;;;;;;;;4966593;28;20047;-64
2022/04/27 08:28:47;;;;;;;13.05;6.72;;;;;;;;;;4965345;28;20051;-64
2022/04/27 08:31:18;;;;;;;10.68;5.95;;;;;;;;;;4964642;28;20043;-65
2022/04/27 08:33:48;;;;;;;13.27;6.35;;;;;;;;;;4965655;28;20086;-66
2022/04/27 08:36:18;;;;;;;10.77;6.30;;;;;;;;;;4960955;28;20961;-64
2022/04/27 08:38:58;;;;;;;14.75;6.97;;;;;;;;;;4962622;28;20517;-65
2022/04/27 08:41:28;;;;;;;12.63;6.40;;;;;;;;;;4961060;28;20166;-65
2022/04/27 08:43:57;;;;;;;11.77;6.03;;;;;;;;;;4966221;28;20055;-66
2022/04/27 08:46:28;;;;;;;12.88;6.45;;;;;;;;;;4970428;28;20113;-64
2022/04/27 08:48:57;;;;;;;12.10;6.10;;;;;;;;;;4962046;28;20057;-64
2022/04/27 08:51:30;;;;;;;9.90;5.68;;;;;;;;;;4971684;28;20109;-64
2022/04/27 08:53:59;;;;;;;10.05;5.32;;;;;;;;;;4966974;28;20159;-64
2022/04/27 08:56:30;;;;;;;9.68;5.40;;;;;;;;;;4967358;28;20055;-67
2022/04/27 08:58:58;;;;;;;9.55;5.40;;;;;;;;;;4960876;28;20050;-64
2022/04/27 09:01:27;;;;;;;8.88;5.00;;;;;;;;;;4963479;28;20546;-64
2022/04/27 09:04:12;;;;;;;10.65;5.53;;;;;;;;;;4964353;28;20054;-65
2022/04/27 09:06:42;;;;;;;9.02;5.03;;;;;;;;;;4964456;28;20061;-64
2022/04/27 09:09:13;;;;;;;10.93;4.93;;;;;;;;;;4965069;28;20462;-65
2022/04/27 09:11:42;;;;;;;10.77;5.78;;;;;;;;;;4975681;28;20046;-66
2022/04/27 09:14:10;;;;;;;9.60;5.07;;;;;;;;;;4967116;28;20051;-65
2022/04/27 09:22:15;;;;;;;7.63;4.60;;;;;;;;;;4972745;28;20070;-66
2022/04/27 09:24:51;;;;;;;11.57;4.93;;;;;;;;;;4969249;28;20105;-65
2022/04/27 09:27:21;;;;;;;8.05;4.82;;;;;;;;;;4973387;28;20086;-65
2022/04/27 09:29:59;;;;;;;9.93;4.30;;;;;;;;;;4968673;28;20082;-65
2022/04/27 09:32:28;;;;;;;9.18;4.60;;;;;;;;;;4968216;28;20058;-66
2022/04/27 09:34:58;;;;;;;6.93;4.03;;;;;;;;;;4966915;28;20054;-66
2022/04/27 09:37:30;;;;;;;7.97;4.70;;;;;;;;;;4974455;28;20532;-65
2022/04/27 09:40:03;;;;;;;10.05;5.10;;;;;;;;;;4972205;28;20049;-63
2022/04/27 09:42:32;;;;;;;11.57;5.60;;;;;;;;;;4973521;28;20470;-64
2022/04/27 09:45:17;;;;;;;11.57;5.28;;;;;;;;;;4970426;28;20084;-64
2022/04/27 09:47:47;;;;;;;13.70;5.95;;;;;;;;;;4971367;28;20065;-64
2022/04/27 09:50:16;;;;;;;9.07;5.70;;;;;;;;;;4968407;28;20077;-65
2022/04/27 09:52:46;;;;;;;9.30;4.95;;;;;;;;;;4970053;28;20145;-64
2022/04/27 09:55:15;;;;;;;10.55;5.25;;;;;;;;;;4974374;28;20054;-64
2022/04/27 09:57:51;;;;;;;9.70;4.97;;;;;;;;;;4968004;28;20058;-65
2022/04/27 10:00:20;;;;;;;9.30;5.00;;;;;;;;;;4953614;28;20715;-64
2022/04/27 10:02:50;;;;;;;8.32;4.85;;;;;;;;;;4969480;28;20147;-64
2022/04/27 10:05:19;;;;;;;12.05;5.65;;;;;;;;;;4971579;28;20055;-64
2022/04/27 10:07:49;;;;;;;11.35;5.10;;;;;;;;;;4971890;28;20550;-64
2022/04/27 10:10:18;;;;;;;9.60;5.15;;;;;;;;;;4976388;28;20158;-64
2022/04/27 10:12:48;;;;;;;11.13;5.30;;;;;;;;;;4971694;28;20232;-64
2022/04/27 10:15:17;;;;;;;10.50;5.10;;;;;;;;;;4968875;28;20046;-65
2022/04/27 10:17:45;;;;;;;10.60;5.50;;;;;;;;;;4967438;28;20597;-64
2022/04/27 10:20:30;;;;;;;8.93;5.20;;;;;;;;;;4969688;28;20154;-65
2022/04/27 10:23:18;;;;;;;8.50;4.55;;;;;;;;;;4966645;28;20148;-64
2022/04/27 10:26:01;;;;;;;8.13;4.95;;;;;;;;;;4971153;28;20169;-64
2022/04/27 10:28:32;;;;;;;9.38;4.68;;;;;;;;;;4966544;28;20066;-65
2022/04/27 10:31:07;;;;;;;10.70;4.88;;;;;;;;;;4969510;28;21377;-64
2022/04/27 10:33:42;;;;;;;9.57;5.18;;;;;;;;;;4966883;28;20046;-64
2022/04/27 10:36:38;;;;;;;8.60;5.45;;;;;;;;;;4969692;28;20101;-64
2022/04/27 10:39:20;;;;;;;10.00;5.25;;;;;;;;;;4967026;28;20498;-65
2022/04/27 10:41:56;;;;;;;9.35;4.60;;;;;;;;;;4965814;28;20077;-65
2022/04/27 10:44:58;;;;;;;11.60;5.50;;;;;;;;;;4971685;28;21054;-64
2022/04/27 10:47:26;;;;;;;12.45;5.65;;;;;;;;;;4967961;28;20049;-64
2022/04/27 10:50:09;;;;;;;10.90;5.80;;;;;;;;;;4969295;28;20150;-63
2022/04/27 10:52:44;;;;;;;13.23;6.65;;;;;;;;;;4968438;28;20046;-64
2022/04/27 10:55:27;;;;;;;14.10;5.85;;;;;;;;;;4970613;28;20055;-64
2022/04/27 10:58:12;;;;;;;12.38;5.95;;;;;;;;;;4966647;28;20054;-64
2022/04/27 11:00:55;;;;;;;12.38;6.03;;;;;;;;;;4974989;28;20080;-65
2022/04/27 11:03:26;;;;;;;11.52;6.15;;;;;;;;;;4955917;28;20043;-65
2022/04/27 11:05:58;;;;;;;13.77;6.60;;;;;;;;;;4973340;28;20058;-65
2022/04/27 11:08:32;;;;;;;11.25;6.03;;;;;;;;;;4967411;28;20059;-65
2022/04/27 11:11:07;;;;;;;13.27;5.67;;;;;;;;;;4980758;28;20058;-65
2022/04/27 11:13:36;;;;;;;11.07;6.03;;;;;;;;;;4980620;28;20313;-64
2022/04/27 11:16:08;;;;;;;11.43;6.18;;;;;;;;;;4980934;28;20050;-64
2022/04/27 11:18:50;;;;;;;13.32;6.63;;;;;;;;;;4984241;28;20053;-64
2022/04/27 11:21:19;;;;;;;11.88;6.07;;;;;;;;;;4982134;28;20470;-65
2022/04/27 11:23:48;;;;;;;12.88;6.30;;;;;;;;;;4984841;28;20061;-65
2022/04/27 11:26:17;;;;;;;10.35;5.53;;;;;;;;;;4991535;28;20092;-64
2022/04/27 11:28:46;;;;;;;10.35;5.50;;;;;;;;;;4972295;28;20450;-64
2022/04/27 11:31:16;;;;;;;10.25;5.65;;;;;;;;;;4983379;28;20494;-65
2022/04/27 11:33:45;;;;;;;11.10;6.05;;;;;;;;;;4985866;28;20078;-64
2022/04/27 11:36:23;;;;;;;10.60;5.40;;;;;;;;;;4986673;28;20050;-64
2022/04/27 11:38:53;;;;;;;10.10;5.10;;;;;;;;;;4989770;28;20093;-64
2022/04/27 11:41:24;;;;;;;7.60;4.35;;;;;;;;;;4983306;28;20149;-66
2022/04/27 11:43:54;;;;;;;7.85;4.28;;;;;;;;;;4983815;28;20089;-65
2022/04/27 11:46:23;;;;;;;8.90;4.82;;;;;;;;;;4983736;28;20046;-65
2022/04/27 11:48:52;;;;;;;10.98;5.10;;;;;;;;;;4990546;28;20124;-65
2022/04/27 11:51:22;;;;;;;9.63;4.80;;;;;;;;;;4989996;28;20612;-65
2022/04/27 11:53:51;;;;;;;6.78;4.32;;;;;;;;;;4987120;28;20095;-65
2022/04/27 11:56:20;;;;;;;8.23;4.45;;;;;;;;;;4992088;28;20046;-66
2022/04/27 11:58:49;;;;;;;6.78;3.95;;;;;;;;;;4974559;28;20055;-66
2022/04/27 12:01:21;;;;;;;6.80;3.90;;;;;;;;;;4991523;28;20051;-65
2022/04/27 12:03:50;;;;;;;6.35;3.72;;;;;;;;;;4987255;28;20120;-65
2022/04/27 12:06:19;;;;;;;5.20;3.10;;;;;;;;;;4993067;28;20138;-65
2022/04/27 12:08:49;;;;;;;6.95;3.22;;;;;;;;;;4989989;28;20058;-65
2022/04/27 12:11:22;;;;;;;3.75;2.72;;;;;;;;;;4989827;28;20057;-65
2022/04/27 12:13:51;;;;;;;5.63;3.60;;;;;;;;;;4992984;28;20431;-65
2022/04/27 12:16:20;;;;;;;6.65;4.07;;;;;;;;;;4988461;28;20043;-64
2022/04/27 12:18:53;;;;;;;6.00;3.85;;;;;;;;;;4986273;28;20042;-65
2022/04/27 12:21:24;;;;;;;5.65;3.65;;;;;;;;;;4993009;28;20146;-65
2022/04/27 12:23:56;;;;;;;4.53;3.15;;;;;;;;;;4987741;28;20514;-63
2022/04/27 12:26:26;;;;;;;6.40;3.70;;;;;;;;;;4991660;28;20117;-64
2022/04/27 12:28:54;;;;;;;5.43;3.25;;;;;;;;;;4989976;28;20407;-65
2022/04/27 12:31:31;;;;;;;5.90;3.20;;;;;;;;;;4988475;28;20054;-64
2022/04/27 12:34:00;;;;;;;3.80;2.67;;;;;;;;;;4988520;28;20046;-64
2022/04/27 12:39:23;;;;;;;5.50;3.15;;;;;;;;;;4991543;28;20046;-64
2022/04/27 12:41:52;;;;;;;4.28;3.28;;;;;;;;;;4982768;28;20470;-65
2022/04/27 12:44:24;;;;;;;5.50;3.42;;;;;;;;;;4983725;28;20053;-65
2022/04/27 12:46:57;;;;;;;4.57;3.08;;;;;;;;;;4983796;28;20054;-64
2022/04/27 12:49:27;;;;;;;5.90;3.50;;;;;;;;;;4982494;28;20152;-64
2022/04/27 12:51:57;;;;;;;5.68;3.50;;;;;;;;;;4983109;28;20367;-64
2022/04/27 12:54:44;;;;;;;6.45;3.42;;;;;;;;;;4984499;28;20057;-64
2022/04/27 12:57:14;;;;;;;4.80;2.90;;;;;;;;;;4981824;28;20828;-65
2022/04/27 12:59:58;;;;;;;5.55;3.60;;;;;;;;;;4981568;28;20407;-64
2022/04/27 13:02:27;;;;;;;5.65;3.65;;;;;;;;;;4978880;28;20058;-67
2022/04/27 13:04:57;;;;;;;6.88;3.25;;;;;;;;;;4984628;28;20050;-65
2022/04/27 13:07:25;;;;;;;4.97;3.15;;;;;;;;;;4986702;28;20042;-65
2022/04/27 13:12:43;;;;;;;5.35;3.45;;;;;;;;;;4992932;28;20056;-65
2022/04/27 13:15:12;;;;;;;5.25;3.55;;;;;;;;;;4990122;28;20050;-65
2022/04/27 13:17:42;;;;;;;6.25;3.78;;;;;;;;;;4985533;28;21729;-64
2022/04/27 13:20:11;;;;;;;3.90;2.85;;;;;;;;;;4986796;28;20130;-65
2022/04/27 13:22:40;;;;;;;4.60;3.00;;;;;;;;;;4988133;28;20042;-64
2022/04/27 13:25:10;;;;;;;3.08;2.53;;;;;;;;;;4990774;28;20054;-65
2022/04/27 13:27:40;;;;;;;4.18;2.80;;;;;;;;;;4981572;28;20047;-63
2022/04/27 13:30:11;;;;;;;4.40;2.92;;;;;;;;;;4987332;28;20077;-64
2022/04/27 13:32:41;;;;;;;4.20;3.63;;;;;;;;;;4988407;28;20043;-65
2022/04/27 13:35:10;;;;;;;5.40;3.38;;;;;;;;;;4989935;28;20486;-64
2022/04/27 13:37:38;;;;;;;6.95;3.28;;;;;;;;;;4988772;28;20050;-64
2022/04/27 13:40:08;;;;;;;4.82;3.03;;;;;;;;;;4977178;28;20046;-65
2022/04/27 13:42:38;;;;;;;4.00;2.83;;;;;;;;;;4981699;28;20081;-64
2022/04/27 13:45:07;;;;;;;3.00;2.08;;;;;;;;;;4980970;28;20140;-65
2022/04/27 13:47:37;;;;;;;3.22;1.92;;;;;;;;;;4979812;28;20498;-64
2022/04/27 13:50:07;;;;;;;4.50;2.00;;;;;;;;;;4978560;28;20490;-66
2022/04/27 13:52:52;;;;;;;5.03;2.72;;;;;;;;;;4982609;28;20087;-67
2022/04/27 13:55:20;;;;;;;3.45;2.20;;;;;;;;;;4980709;28;20491;-64
2022/04/27 13:57:49;;;;;;;3.40;2.50;;;;;;;;;;4979707;28;20054;-64
2022/04/27 14:00:18;;;;;;;4.20;2.55;;;;;;;;;;4977738;28;20104;-65
2022/04/27 14:02:48;;;;;;;2.22;1.73;;;;;;;;;;4980882;28;20097;-65
2022/04/27 14:05:16;;;;;;;3.42;2.28;;;;;;;;;;4982247;28;20108;-65
2022/04/27 14:07:45;;;;;;;3.80;2.17;;;;;;;;;;4981645;28;20083;-66
2022/04/27 14:10:14;;;;;;;3.88;2.60;;;;;;;;;;4981938;28;20520;-66
2022/04/27 14:15:29;;;;;;;3.05;2.00;;;;;;;;;;4982434;28;20718;-65
2022/04/27 14:18:10;;;;;;;1.95;1.50;;;;;;;;;;4979676;28;20498;-65
2022/04/27 14:20:40;;;;;;;2.17;1.70;;;;;;;;;;4977233;28;20573;-65
2022/04/27 14:23:09;;;;;;;2.05;1.67;;;;;;;;;;4977782;28;20157;-66
2022/04/27 14:25:38;;;;;;;3.30;2.03;;;;;;;;;;4983436;28;20050;-65
2022/04/27 14:28:12;;;;;;;3.08;2.00;;;;;;;;;;4980784;28;20051;-65
2022/04/27 14:30:41;;;;;;;3.63;2.50;;;;;;;;;;4982761;28;20132;-65
2022/04/27 14:33:12;;;;;;;4.43;2.22;;;;;;;;;;4977248;28;20162;-65
2022/04/27 14:35:41;;;;;;;3.55;2.60;;;;;;;;;;4981042;28;20042;-65
2022/04/27 14:38:10;;;;;;;2.65;1.63;;;;;;;;;;4978239;28;20061;-65
2022/04/27 14:40:39;;;;;;;2.53;2.05;;;;;;;;;;4982068;28;20042;-65
2022/04/27 14:43:08;;;;;;;4.35;1.85;;;;;;;;;;4981721;28;20055;-66
2022/04/27 14:45:37;;;;;;;3.17;1.67;;;;;;;;;;4980924;28;20092;-65
2022/04/27 14:48:07;;;;;;;2.67;1.90;;;;;;;;;;4978897;28;20054;-66
2022/04/27 14:50:38;;;;;;;2.75;2.33;;;;;;;;;;4980600;28;20050;-66
2022/04/27 14:53:07;;;;;;;2.90;1.90;;;;;;;;;;4982384;28;20097;-65
2022/04/27 14:55:42;;;;;;;2.50;1.85;;;;;;;;;;4981168;28;20503;-67
2022/04/27 14:58:11;;;;;;;2.15;1.63;;;;;;;;;;4979658;28;20054;-65
2022/04/27 15:00:40;;;;;;;3.78;2.45;;;;;;;;;;4979637;28;20055;-66
2022/04/27 15:03:10;;;;;;;3.75;2.70;;;;;;;;;;4980129;28;20053;-66
2022/04/27 15:05:41;;;;;;;3.92;2.38;;;;;;;;;;4977998;28;20052;-66
2022/04/27 15:08:09;;;;;;;3.85;2.97;;;;;;;;;;4979941;28;20060;-65
2022/04/27 15:10:38;;;;;;;3.33;2.28;;;;;;;;;;4983117;28;20105;-64
2022/04/27 15:13:07;;;;;;;3.25;2.42;;;;;;;;;;4981955;28;20056;-66
2022/04/27 15:15:36;;;;;;;4.65;3.08;;;;;;;;;;4979857;28;20510;-67
2022/04/27 15:18:04;;;;;;;6.05;2.75;;;;;;;;;;4976984;28;20058;-65
2022/04/27 15:23:21;;;;;;;5.30;3.47;;;;;;;;;;4981333;28;20062;-65
2022/04/27 15:25:49;;;;;;;3.95;2.60;;;;;;;;;;4981733;28;20058;-66